sensor_id;sensor_type;location;lat;lon;timestamp;P1;durP1;ratioP1;P2;durP2;ratioP2
8113;SDS011;4099;52.684;9.918;2023-05-10T00:01:03;4.20;;;3.80;;
8113;SDS011;4099;52.684;9.918;2023-05-10T00:06:08;4.33;;;3.93;;
8113;SDS011;4099;52.684;9.918;2023-05-10T00:11:10;4.87;;;4.37;;
8113;SDS011;4099;52.684;9.918;2023-05-10T00:16:17;4.37;;;3.97;;
8113;SDS011;4099;52.684;9.918;2023-05-10T00:21:23;4.77;;;4.17;;
8113;SDS011;4099;52.684;9.918;2023-05-10T00:26:29;5.37;;;4.23;;
8113;SDS011;4099;52.684;9.918;2023-05-10T00:31:42;4.40;;;4.00;;
8113;SDS011;4099;52.684;9.918;2023-05-10T00:36:46;4.60;;;4.13;;
8113;SDS011;4099;52.684;9.918;2023-05-10T00:41:55;4.90;;;3.90;;
8113;SDS011;4099;52.684;9.918;2023-05-10T00:47:05;4.40;;;4.00;;
8113;SDS011;4099;52.684;9.918;2023-05-10T00:52:19;4.03;;;3.73;;
8113;SDS011;4099;52.684;9.918;2023-05-10T00:57:25;4.37;;;3.97;;
8113;SDS011;4099;52.684;9.918;2023-05-10T01:02:35;4.67;;;4.20;;
8113;SDS011;4099;52.684;9.918;2023-05-10T01:07:42;4.67;;;4.27;;
8113;SDS011;4099;52.684;9.918;2023-05-10T01:12:51;4.60;;;4.07;;
8113;SDS011;4099;52.684;9.918;2023-05-10T01:17:59;4.80;;;4.40;;
8113;SDS011;4099;52.684;9.918;2023-05-10T01:23:21;5.30;;;4.40;;
8113;SDS011;4099;52.684;9.918;2023-05-10T01:28:47;4.50;;;4.10;;
8113;SDS011;4099;52.684;9.918;2023-05-10T01:34:25;5.73;;;4.80;;
8113;SDS011;4099;52.684;9.918;2023-05-10T01:39:39;5.40;;;4.90;;
8113;SDS011;4099;52.684;9.918;2023-05-10T01:44:49;5.03;;;4.60;;
8113;SDS011;4099;52.684;9.918;2023-05-10T01:50:03;4.90;;;4.50;;
8113;SDS011;4099;52.684;9.918;2023-05-10T01:55:15;5.03;;;4.63;;
8113;SDS011;4099;52.684;9.918;2023-05-10T02:00:27;5.20;;;4.70;;
8113;SDS011;4099;52.684;9.918;2023-05-10T02:05:37;5.13;;;4.63;;
8113;SDS011;4099;52.684;9.918;2023-05-10T02:11:10;4.80;;;4.33;;
8113;SDS011;4099;52.684;9.918;2023-05-10T02:16:19;4.67;;;4.27;;
8113;SDS011;4099;52.684;9.918;2023-05-10T02:21:39;4.90;;;4.50;;
8113;SDS011;4099;52.684;9.918;2023-05-10T02:26:43;5.00;;;4.60;;
8113;SDS011;4099;52.684;9.918;2023-05-10T02:31:53;5.03;;;4.60;;
8113;SDS011;4099;52.684;9.918;2023-05-10T02:37:11;4.97;;;4.57;;
8113;SDS011;4099;52.684;9.918;2023-05-10T02:42:18;5.40;;;4.87;;
8113;SDS011;4099;52.684;9.918;2023-05-10T02:47:27;5.30;;;4.80;;
8113;SDS011;4099;52.684;9.918;2023-05-10T02:52:38;5.80;;;4.87;;
8113;SDS011;4099;52.684;9.918;2023-05-10T02:57:48;5.13;;;4.63;;
8113;SDS011;4099;52.684;9.918;2023-05-10T03:02:54;5.27;;;4.67;;
8113;SDS011;4099;52.684;9.918;2023-05-10T03:08:12;5.37;;;4.87;;
8113;SDS011;4099;52.684;9.918;2023-05-10T03:13:21;5.40;;;4.60;;
8113;SDS011;4099;52.684;9.918;2023-05-10T03:18:38;5.80;;;4.53;;
8113;SDS011;4099;52.684;9.918;2023-05-10T03:23:53;5.47;;;4.90;;
8113;SDS011;4099;52.684;9.918;2023-05-10T03:29:17;5.30;;;4.80;;
8113;SDS011;4099;52.684;9.918;2023-05-10T03:34:28;4.90;;;4.50;;
8113;SDS011;4099;52.684;9.918;2023-05-10T03:39:36;4.80;;;4.40;;
8113;SDS011;4099;52.684;9.918;2023-05-10T03:44:45;5.07;;;4.60;;
8113;SDS011;4099;52.684;9.918;2023-05-10T03:49:58;5.83;;;4.83;;
8113;SDS011;4099;52.684;9.918;2023-05-10T03:55:19;5.07;;;4.40;;
8113;SDS011;4099;52.684;9.918;2023-05-10T04:00:26;5.13;;;4.30;;
8113;SDS011;4099;52.684;9.918;2023-05-10T04:05:40;6.77;;;5.73;;
8113;SDS011;4099;52.684;9.918;2023-05-10T04:10:51;5.20;;;4.70;;
8113;SDS011;4099;52.684;9.918;2023-05-10T04:16:30;5.20;;;4.73;;
8113;SDS011;4099;52.684;9.918;2023-05-10T04:21:33;5.10;;;4.63;;
8113;SDS011;4099;52.684;9.918;2023-05-10T04:26:43;5.13;;;4.73;;
8113;SDS011;4099;52.684;9.918;2023-05-10T04:31:58;5.73;;;5.23;;
8113;SDS011;4099;52.684;9.918;2023-05-10T04:37:09;5.40;;;4.90;;
8113;SDS011;4099;52.684;9.918;2023-05-10T04:42:28;4.90;;;4.40;;
8113;SDS011;4099;52.684;9.918;2023-05-10T04:47:40;5.30;;;4.80;;
8113;SDS011;4099;52.684;9.918;2023-05-10T04:52:53;5.20;;;4.80;;
8113;SDS011;4099;52.684;9.918;2023-05-10T04:58:02;4.87;;;4.47;;
8113;SDS011;4099;52.684;9.918;2023-05-10T05:03:08;5.30;;;4.80;;
8113;SDS011;4099;52.684;9.918;2023-05-10T05:08:14;4.80;;;4.40;;
8113;SDS011;4099;52.684;9.918;2023-05-10T05:13:21;4.87;;;4.47;;
8113;SDS011;4099;52.684;9.918;2023-05-10T05:18:25;5.40;;;4.90;;
8113;SDS011;4099;52.684;9.918;2023-05-10T05:23:41;5.37;;;4.40;;
8113;SDS011;4099;52.684;9.918;2023-05-10T05:28:53;5.00;;;4.50;;
8113;SDS011;4099;52.684;9.918;2023-05-10T05:33:59;5.60;;;5.00;;
8113;SDS011;4099;52.684;9.918;2023-05-10T05:39:05;4.87;;;4.37;;
8113;SDS011;4099;52.684;9.918;2023-05-10T05:44:15;5.37;;;4.77;;
8113;SDS011;4099;52.684;9.918;2023-05-10T05:49:26;5.83;;;4.77;;
8113;SDS011;4099;52.684;9.918;2023-05-10T05:54:30;6.17;;;4.80;;
8113;SDS011;4099;52.684;9.918;2023-05-10T05:59:38;5.30;;;4.80;;
8113;SDS011;4099;52.684;9.918;2023-05-10T06:04:57;5.00;;;4.60;;
8113;SDS011;4099;52.684;9.918;2023-05-10T06:10:05;5.63;;;4.90;;
8113;SDS011;4099;52.684;9.918;2023-05-10T06:15:14;6.13;;;5.27;;
8113;SDS011;4099;52.684;9.918;2023-05-10T06:20:21;6.33;;;4.83;;
8113;SDS011;4099;52.684;9.918;2023-05-10T06:25:25;6.07;;;5.47;;
8113;SDS011;4099;52.684;9.918;2023-05-10T06:30:33;8.20;;;5.43;;
8113;SDS011;4099;52.684;9.918;2023-05-10T06:35:38;9.60;;;5.47;;
8113;SDS011;4099;52.684;9.918;2023-05-10T06:40:44;5.37;;;4.87;;
8113;SDS011;4099;52.684;9.918;2023-05-10T06:45:58;6.27;;;5.70;;
8113;SDS011;4099;52.684;9.918;2023-05-10T06:51:01;6.50;;;5.90;;
8113;SDS011;4099;52.684;9.918;2023-05-10T06:56:05;7.47;;;5.70;;
8113;SDS011;4099;52.684;9.918;2023-05-10T07:01:17;7.37;;;5.90;;
8113;SDS011;4099;52.684;9.918;2023-05-10T07:06:27;6.67;;;6.07;;
8113;SDS011;4099;52.684;9.918;2023-05-10T07:11:38;8.23;;;6.60;;
8113;SDS011;4099;52.684;9.918;2023-05-10T07:16:42;6.40;;;5.80;;
8113;SDS011;4099;52.684;9.918;2023-05-10T07:21:45;6.30;;;5.70;;
8113;SDS011;4099;52.684;9.918;2023-05-10T07:26:51;7.97;;;6.23;;
8113;SDS011;4099;52.684;9.918;2023-05-10T07:32:03;7.30;;;6.43;;
8113;SDS011;4099;52.684;9.918;2023-05-10T07:37:09;6.67;;;6.07;;
8113;SDS011;4099;52.684;9.918;2023-05-10T07:42:13;7.80;;;7.00;;
8113;SDS011;4099;52.684;9.918;2023-05-10T07:47:27;7.70;;;7.00;;
8113;SDS011;4099;52.684;9.918;2023-05-10T07:52:33;17.47;;;15.40;;
8113;SDS011;4099;52.684;9.918;2023-05-10T07:57:39;8.23;;;7.50;;
8113;SDS011;4099;52.684;9.918;2023-05-10T08:02:49;8.07;;;7.37;;
8113;SDS011;4099;52.684;9.918;2023-05-10T08:08:16;8.23;;;7.53;;
8113;SDS011;4099;52.684;9.918;2023-05-10T08:13:48;9.20;;;8.30;;
8113;SDS011;4099;52.684;9.918;2023-05-10T08:19:06;9.27;;;8.37;;
8113;SDS011;4099;52.684;9.918;2023-05-10T08:24:26;9.87;;;8.70;;
8113;SDS011;4099;52.684;9.918;2023-05-10T08:29:33;9.07;;;8.27;;
8113;SDS011;4099;52.684;9.918;2023-05-10T08:40:13;10.23;;;9.27;;
8113;SDS011;4099;52.684;9.918;2023-05-10T08:45:31;10.77;;;9.57;;
8113;SDS011;4099;52.684;9.918;2023-05-10T08:50:46;9.63;;;8.73;;
8113;SDS011;4099;52.684;9.918;2023-05-10T08:56:02;10.80;;;9.70;;
8113;SDS011;4099;52.684;9.918;2023-05-10T09:01:15;9.97;;;8.97;;
8113;SDS011;4099;52.684;9.918;2023-05-10T09:06:40;8.47;;;7.67;;
8113;SDS011;4099;52.684;9.918;2023-05-10T09:11:44;8.80;;;7.90;;
8113;SDS011;4099;52.684;9.918;2023-05-10T09:16:52;9.57;;;8.57;;
8113;SDS011;4099;52.684;9.918;2023-05-10T09:22:05;9.80;;;8.57;;
8113;SDS011;4099;52.684;9.918;2023-05-10T09:27:29;9.80;;;8.90;;
8113;SDS011;4099;52.684;9.918;2023-05-10T09:32:54;9.03;;;8.23;;
8113;SDS011;4099;52.684;9.918;2023-05-10T09:38:06;9.77;;;8.77;;
8113;SDS011;4099;52.684;9.918;2023-05-10T09:43:11;9.30;;;8.40;;
8113;SDS011;4099;52.684;9.918;2023-05-10T09:48:21;10.00;;;9.10;;
8113;SDS011;4099;52.684;9.918;2023-05-10T09:54:08;9.73;;;8.83;;
8113;SDS011;4099;52.684;9.918;2023-05-10T09:59:25;8.93;;;8.20;;
8113;SDS011;4099;52.684;9.918;2023-05-10T10:04:47;7.77;;;7.03;;
8113;SDS011;4099;52.684;9.918;2023-05-10T10:10:11;7.17;;;6.57;;
8113;SDS011;4099;52.684;9.918;2023-05-10T10:16:09;7.57;;;6.97;;
8113;SDS011;4099;52.684;9.918;2023-05-10T10:21:10;7.93;;;7.23;;
8113;SDS011;4099;52.684;9.918;2023-05-10T10:26:19;7.47;;;6.83;;
8113;SDS011;4099;52.684;9.918;2023-05-10T10:31:46;7.60;;;6.90;;
8113;SDS011;4099;52.684;9.918;2023-05-10T10:37:03;6.13;;;5.63;;
8113;SDS011;4099;52.684;9.918;2023-05-10T10:42:18;6.70;;;6.10;;
8113;SDS011;4099;52.684;9.918;2023-05-10T10:53:53;6.20;;;5.70;;
8113;SDS011;4099;52.684;9.918;2023-05-10T10:59:27;6.47;;;5.87;;
8113;SDS011;4099;52.684;9.918;2023-05-10T11:10:37;6.20;;;5.70;;
8113;SDS011;4099;52.684;9.918;2023-05-10T11:16:27;5.10;;;4.70;;
8113;SDS011;4099;52.684;9.918;2023-05-10T11:21:47;4.50;;;4.20;;
8113;SDS011;4099;52.684;9.918;2023-05-10T11:27:09;4.57;;;4.17;;
8113;SDS011;4099;52.684;9.918;2023-05-10T11:32:46;4.00;;;3.70;;
8113;SDS011;4099;52.684;9.918;2023-05-10T11:38:13;4.50;;;4.10;;
8113;SDS011;4099;52.684;9.918;2023-05-10T11:43:53;4.30;;;4.00;;
8113;SDS011;4099;52.684;9.918;2023-05-10T11:49:15;4.33;;;4.03;;
8113;SDS011;4099;52.684;9.918;2023-05-10T11:54:53;4.83;;;4.47;;
8113;SDS011;4099;52.684;9.918;2023-05-10T12:00:32;5.43;;;4.10;;
8113;SDS011;4099;52.684;9.918;2023-05-10T12:05:54;3.70;;;3.40;;
8113;SDS011;4099;52.684;9.918;2023-05-10T12:11:28;3.40;;;3.13;;
8113;SDS011;4099;52.684;9.918;2023-05-10T12:17:03;3.53;;;3.23;;
8113;SDS011;4099;52.684;9.918;2023-05-10T12:22:15;4.80;;;3.40;;
8113;SDS011;4099;52.684;9.918;2023-05-10T12:27:31;4.47;;;4.07;;
8113;SDS011;4099;52.684;9.918;2023-05-10T12:32:38;4.20;;;3.90;;
8113;SDS011;4099;52.684;9.918;2023-05-10T12:37:51;4.57;;;4.20;;
8113;SDS011;4099;52.684;9.918;2023-05-10T12:42:57;6.40;;;4.10;;
8113;SDS011;4099;52.684;9.918;2023-05-10T12:48:16;4.50;;;3.93;;
8113;SDS011;4099;52.684;9.918;2023-05-10T12:53:22;4.27;;;3.97;;
8113;SDS011;4099;52.684;9.918;2023-05-10T12:58:51;3.70;;;3.40;;
8113;SDS011;4099;52.684;9.918;2023-05-10T13:04:08;3.50;;;3.20;;
8113;SDS011;4099;52.684;9.918;2023-05-10T13:09:14;4.10;;;3.80;;
8113;SDS011;4099;52.684;9.918;2023-05-10T13:14:28;3.60;;;3.30;;
8113;SDS011;4099;52.684;9.918;2023-05-10T13:19:45;3.77;;;3.47;;
8113;SDS011;4099;52.684;9.918;2023-05-10T13:25:00;3.23;;;3.03;;
8113;SDS011;4099;52.684;9.918;2023-05-10T13:30:08;3.30;;;3.10;;
8113;SDS011;4099;52.684;9.918;2023-05-10T13:35:33;5.07;;;4.30;;
8113;SDS011;4099;52.684;9.918;2023-05-10T13:40:58;4.43;;;3.50;;
8113;SDS011;4099;52.684;9.918;2023-05-10T13:46:22;3.53;;;3.23;;
8113;SDS011;4099;52.684;9.918;2023-05-10T13:51:40;4.60;;;3.20;;
8113;SDS011;4099;52.684;9.918;2023-05-10T13:56:54;4.00;;;3.60;;
8113;SDS011;4099;52.684;9.918;2023-05-10T14:02:19;3.70;;;3.33;;
8113;SDS011;4099;52.684;9.918;2023-05-10T14:07:52;5.43;;;3.97;;
8113;SDS011;4099;52.684;9.918;2023-05-10T14:13:24;4.33;;;3.83;;
8113;SDS011;4099;52.684;9.918;2023-05-10T14:18:43;4.77;;;3.90;;
8113;SDS011;4099;52.684;9.918;2023-05-10T14:23:56;4.40;;;4.00;;
8113;SDS011;4099;52.684;9.918;2023-05-10T14:29:54;4.33;;;3.97;;
8113;SDS011;4099;52.684;9.918;2023-05-10T14:35:18;4.17;;;3.63;;
8113;SDS011;4099;52.684;9.918;2023-05-10T14:40:57;4.20;;;3.23;;
8113;SDS011;4099;52.684;9.918;2023-05-10T14:46:23;4.03;;;3.60;;
8113;SDS011;4099;52.684;9.918;2023-05-10T14:51:50;3.80;;;3.50;;
8113;SDS011;4099;52.684;9.918;2023-05-10T14:57:23;4.13;;;3.70;;
8113;SDS011;4099;52.684;9.918;2023-05-10T15:02:40;4.87;;;4.47;;
8113;SDS011;4099;52.684;9.918;2023-05-10T15:07:58;5.47;;;4.37;;
8113;SDS011;4099;52.684;9.918;2023-05-10T15:13:27;5.87;;;5.27;;
8113;SDS011;4099;52.684;9.918;2023-05-10T15:18:45;5.10;;;4.60;;
8113;SDS011;4099;52.684;9.918;2023-05-10T15:23:56;6.00;;;5.50;;
8113;SDS011;4099;52.684;9.918;2023-05-10T15:29:10;6.87;;;5.47;;
8113;SDS011;4099;52.684;9.918;2023-05-10T15:40:36;6.43;;;5.83;;
8113;SDS011;4099;52.684;9.918;2023-05-10T15:45:50;4.97;;;4.57;;
8113;SDS011;4099;52.684;9.918;2023-05-10T15:57:13;6.03;;;5.07;;
8113;SDS011;4099;52.684;9.918;2023-05-10T16:02:44;4.90;;;4.50;;
8113;SDS011;4099;52.684;9.918;2023-05-10T16:07:59;5.20;;;4.63;;
8113;SDS011;4099;52.684;9.918;2023-05-10T16:13:10;5.53;;;4.70;;
8113;SDS011;4099;52.684;9.918;2023-05-10T16:18:31;6.43;;;5.83;;
8113;SDS011;4099;52.684;9.918;2023-05-10T16:23:40;5.00;;;4.50;;
8113;SDS011;4099;52.684;9.918;2023-05-10T16:34:53;5.73;;;5.23;;
8113;SDS011;4099;52.684;9.918;2023-05-10T16:40:12;6.00;;;5.40;;
8113;SDS011;4099;52.684;9.918;2023-05-10T16:45:24;5.37;;;4.57;;
8113;SDS011;4099;52.684;9.918;2023-05-10T16:50:34;5.77;;;5.23;;
8113;SDS011;4099;52.684;9.918;2023-05-10T16:55:51;6.57;;;5.23;;
8113;SDS011;4099;52.684;9.918;2023-05-10T17:02:34;5.73;;;5.23;;
8113;SDS011;4099;52.684;9.918;2023-05-10T17:07:38;5.70;;;5.20;;
8113;SDS011;4099;52.684;9.918;2023-05-10T17:13:16;6.60;;;5.87;;
8113;SDS011;4099;52.684;9.918;2023-05-10T17:19:00;6.23;;;5.60;;
8113;SDS011;4099;52.684;9.918;2023-05-10T17:23:59;6.63;;;6.03;;
8113;SDS011;4099;52.684;9.918;2023-05-10T17:29:06;7.47;;;6.70;;
8113;SDS011;4099;52.684;9.918;2023-05-10T17:34:37;6.50;;;5.90;;
8113;SDS011;4099;52.684;9.918;2023-05-10T17:40:28;6.80;;;6.20;;
8113;SDS011;4099;52.684;9.918;2023-05-10T17:45:52;7.50;;;6.80;;
8113;SDS011;4099;52.684;9.918;2023-05-10T17:51:09;8.20;;;7.13;;
8113;SDS011;4099;52.684;9.918;2023-05-10T17:56:44;7.10;;;6.47;;
8113;SDS011;4099;52.684;9.918;2023-05-10T18:02:06;8.50;;;6.67;;
8113;SDS011;4099;52.684;9.918;2023-05-10T18:07:28;7.60;;;6.80;;
8113;SDS011;4099;52.684;9.918;2023-05-10T18:13:25;7.87;;;7.07;;
8113;SDS011;4099;52.684;9.918;2023-05-10T18:19:28;8.93;;;7.50;;
8113;SDS011;4099;52.684;9.918;2023-05-10T18:24:55;8.70;;;7.80;;
8113;SDS011;4099;52.684;9.918;2023-05-10T18:30:13;7.83;;;7.07;;
8113;SDS011;4099;52.684;9.918;2023-05-10T18:36:02;7.37;;;6.67;;
8113;SDS011;4099;52.684;9.918;2023-05-10T18:41:12;10.07;;;8.13;;
8113;SDS011;4099;52.684;9.918;2023-05-10T18:46:28;8.93;;;8.03;;
8113;SDS011;4099;52.684;9.918;2023-05-10T18:51:45;8.80;;;7.93;;
8113;SDS011;4099;52.684;9.918;2023-05-10T18:57:16;8.57;;;7.67;;
8113;SDS011;4099;52.684;9.918;2023-05-10T19:02:57;9.77;;;8.27;;
8113;SDS011;4099;52.684;9.918;2023-05-10T19:08:01;19.47;;;15.33;;
8113;SDS011;4099;52.684;9.918;2023-05-10T19:13:16;85.00;;;55.67;;
8113;SDS011;4099;52.684;9.918;2023-05-10T19:18:23;47.67;;;29.37;;
8113;SDS011;4099;52.684;9.918;2023-05-10T19:23:30;25.77;;;20.50;;
8113;SDS011;4099;52.684;9.918;2023-05-10T19:28:40;23.23;;;18.33;;
8113;SDS011;4099;52.684;9.918;2023-05-10T19:33:58;17.17;;;13.70;;
8113;SDS011;4099;52.684;9.918;2023-05-10T19:39:12;15.93;;;14.17;;
8113;SDS011;4099;52.684;9.918;2023-05-10T19:44:16;16.17;;;13.80;;
8113;SDS011;4099;52.684;9.918;2023-05-10T19:49:31;15.03;;;13.17;;
8113;SDS011;4099;52.684;9.918;2023-05-10T19:54:41;12.70;;;11.40;;
8113;SDS011;4099;52.684;9.918;2023-05-10T19:59:45;15.33;;;11.83;;
8113;SDS011;4099;52.684;9.918;2023-05-10T20:04:49;11.40;;;10.20;;
8113;SDS011;4099;52.684;9.918;2023-05-10T20:09:57;11.93;;;10.70;;
8113;SDS011;4099;52.684;9.918;2023-05-10T20:15:04;11.10;;;9.97;;
8113;SDS011;4099;52.684;9.918;2023-05-10T20:20:17;13.33;;;11.47;;
8113;SDS011;4099;52.684;9.918;2023-05-10T20:25:25;13.23;;;11.87;;
8113;SDS011;4099;52.684;9.918;2023-05-10T20:30:47;14.23;;;12.57;;
8113;SDS011;4099;52.684;9.918;2023-05-10T20:35:57;14.37;;;12.17;;
8113;SDS011;4099;52.684;9.918;2023-05-10T20:41:09;14.10;;;12.60;;
8113;SDS011;4099;52.684;9.918;2023-05-10T20:46:21;12.10;;;10.80;;
8113;SDS011;4099;52.684;9.918;2023-05-10T20:51:40;13.63;;;12.20;;
8113;SDS011;4099;52.684;9.918;2023-05-10T20:56:58;17.20;;;12.53;;
8113;SDS011;4099;52.684;9.918;2023-05-10T21:02:08;13.20;;;11.83;;
8113;SDS011;4099;52.684;9.918;2023-05-10T21:07:14;10.63;;;9.53;;
8113;SDS011;4099;52.684;9.918;2023-05-10T21:12:21;8.53;;;7.60;;
8113;SDS011;4099;52.684;9.918;2023-05-10T21:17:27;8.23;;;7.20;;
8113;SDS011;4099;52.684;9.918;2023-05-10T21:22:35;7.43;;;6.73;;
8113;SDS011;4099;52.684;9.918;2023-05-10T21:27:44;6.93;;;6.00;;
8113;SDS011;4099;52.684;9.918;2023-05-10T21:32:58;6.53;;;5.93;;
8113;SDS011;4099;52.684;9.918;2023-05-10T21:38:06;8.47;;;5.93;;
8113;SDS011;4099;52.684;9.918;2023-05-10T21:43:11;5.90;;;5.20;;
8113;SDS011;4099;52.684;9.918;2023-05-10T21:48:14;7.03;;;6.37;;
8113;SDS011;4099;52.684;9.918;2023-05-10T21:53:25;7.37;;;6.67;;
8113;SDS011;4099;52.684;9.918;2023-05-10T21:58:31;6.90;;;6.07;;
8113;SDS011;4099;52.684;9.918;2023-05-10T22:03:36;6.00;;;5.50;;
8113;SDS011;4099;52.684;9.918;2023-05-10T22:08:52;5.70;;;5.20;;
8113;SDS011;4099;52.684;9.918;2023-05-10T22:13:57;5.33;;;4.93;;
8113;SDS011;4099;52.684;9.918;2023-05-10T22:19:06;5.83;;;5.33;;
8113;SDS011;4099;52.684;9.918;2023-05-10T22:24:16;6.30;;;5.80;;
8113;SDS011;4099;52.684;9.918;2023-05-10T22:29:25;5.50;;;5.10;;
8113;SDS011;4099;52.684;9.918;2023-05-10T22:34:30;5.73;;;5.30;;
8113;SDS011;4099;52.684;9.918;2023-05-10T22:39:40;6.27;;;5.67;;
8113;SDS011;4099;52.684;9.918;2023-05-10T22:44:56;6.13;;;5.63;;
8113;SDS011;4099;52.684;9.918;2023-05-10T22:50:02;6.33;;;5.73;;
8113;SDS011;4099;52.684;9.918;2023-05-10T22:55:09;6.80;;;6.27;;
8113;SDS011;4099;52.684;9.918;2023-05-10T23:00:13;6.83;;;6.13;;
8113;SDS011;4099;52.684;9.918;2023-05-10T23:05:21;7.20;;;6.60;;
8113;SDS011;4099;52.684;9.918;2023-05-10T23:11:00;5.33;;;4.93;;
8113;SDS011;4099;52.684;9.918;2023-05-10T23:16:06;5.40;;;5.00;;
8113;SDS011;4099;52.684;9.918;2023-05-10T23:21:14;5.53;;;5.07;;
8113;SDS011;4099;52.684;9.918;2023-05-10T23:26:20;5.83;;;5.23;;
8113;SDS011;4099;52.684;9.918;2023-05-10T23:31:27;5.10;;;4.60;;
8113;SDS011;4099;52.684;9.918;2023-05-10T23:36:36;5.37;;;4.97;;
8113;SDS011;4099;52.684;9.918;2023-05-10T23:41:48;4.80;;;4.40;;
8113;SDS011;4099;52.684;9.918;2023-05-10T23:46:57;4.40;;;4.00;;
8113;SDS011;4099;52.684;9.918;2023-05-10T23:52:10;4.80;;;4.40;;
8113;SDS011;4099;52.684;9.918;2023-05-10T23:57:28;4.33;;;4.00;;
